Ibis Wind — 3FNZ7 — position and weather

sailwx.info

Track history (hours):
 
Tides and Currents Weather Stations Pressure Air Temp Water Temp Dewpoint Dewpoint Depression Visibility Wind Speed Wind Dir Waves Ship Positions

Ibis Wind

Last reported at 2018-Jun-01 05:35 UTC. Time now 2018-Jun-23 21:47 UTC.
Position S 27°34' E 153°52'.
Warning: this ship's position is 22 days out of date.

Length 229 m; draft 13.2 m.

Type: Cargo ship. MMSI: 370333000.

Date/timePositionNaut miles runAvg speedWind from/ knotsBaromVisibWave heightAir tempDewpointWater temp
2018-Jun-01 05:35S 27°34' E 153°52'5 9.9
2018-Jun-01 05:06S 27°39' E 153°52'2 9.9
2018-Jun-01 04:57S 27°40' E 153°52'5 9.8
2018-Jun-01 04:29S 27°45' E 153°52'5 9.8
2018-Jun-01 03:56S 27°50' E 153°52'5 9.8
2018-Jun-01 03:25S 27°55' E 153°51'7 9.7
2018-Jun-01 02:45S 28°02' E 153°51'26810.4
2018-May-31 00:59S 32°22' E 152°41'4 9.2
2018-May-31 00:31S 32°26' E 152°39'4 8.6
2018-May-31 00:00S 32°30' E 152°37'4 8.6
2018-May-30 23:30S 32°33' E 152°33'5 9.5
2018-May-30 23:01S 32°37' E 152°29'5 9.9
2018-May-30 22:31S 32°40' E 152°25'510.6
2018-May-30 22:01S 32°44' E 152°20'5 9.9
2018-May-30 21:30S 32°47' E 152°16'510.9
2018-May-30 21:01S 32°50' E 152°11'510.7
2018-May-30 20:31S 32°53' E 152°05'510.6
2018-May-30 20:01S 32°56' E 151°60'510.7
2018-May-30 19:31S 32°57' E 151°54'4 7.1
2018-May-30 19:01S 32°56' E 151°49'2 5.0
2018-May-30 18:31S 32°55' E 151°47'2 3.5
2018-May-30 18:00S 32°54' E 151°46'1 1.6
2018-May-30 17:29S 32°53' E 151°45'0 0.0
2018-May-30 16:56S 32°53' E 151°45'0 0.0
2018-May-30 16:26S 32°53' E 151°45'0 0.0
2018-May-30 15:59S 32°53' E 151°45'0 0.0
2018-May-30 15:29S 32°53' E 151°45'0 0.0
2018-May-30 14:59S 32°53' E 151°45'0 0.0
2018-May-30 14:29S 32°53' E 151°45'0 0.0
2018-May-30 13:59S 32°53' E 151°45'0 0.0
2018-May-30 13:29S 32°53' E 151°45'0 0.0
2018-May-30 12:59S 32°53' E 151°45'0 0.0
2018-May-30 12:29S 32°53' E 151°45'0 0.0
2018-May-30 11:59S 32°53' E 151°45'0 0.0
2018-May-30 11:29S 32°53' E 151°45'0 0.0
2018-May-30 10:59S 32°53' E 151°45'0 0.0
2018-May-30 10:29S 32°53' E 151°45'0 0.0
2018-May-30 09:59S 32°53' E 151°45'0 0.0
2018-May-30 09:29S 32°53' E 151°45'0 0.0
2018-May-30 08:59S 32°53' E 151°45'0 0.0
2018-May-30 08:29S 32°53' E 151°45'0 0.0
2018-May-30 07:59S 32°53' E 151°45'0 0.0
2018-May-30 07:29S 32°53' E 151°45'0 0.0
2018-May-30 06:59S 32°53' E 151°45'0 0.0
2018-May-30 06:29S 32°53' E 151°45'0 0.0
2018-May-30 06:00S 32°53' E 151°45'0 0.0
2018-May-30 05:25S 32°53' E 151°45'0 0.0
2018-May-30 04:58S 32°53' E 151°45'0 0.0
2018-May-30 04:28S 32°53' E 151°45'0 0.0
2018-May-30 03:58S 32°53' E 151°45'0 0.0
2018-May-30 03:28S 32°53' E 151°45'0 0.0
2018-May-30 02:58S 32°53' E 151°45'0 0.0
2018-May-30 02:28S 32°53' E 151°45'0 0.0
2018-May-30 01:58S 32°53' E 151°45'0 0.0
2018-May-30 01:31S 32°53' E 151°45'0 0.0
2018-May-30 00:58S 32°53' E 151°45'0 0.0
2018-May-30 00:28S 32°53' E 151°45'0 0.0
2018-May-29 23:58S 32°53' E 151°45'0 0.0
2018-May-29 23:28S 32°53' E 151°45'0 0.0
2018-May-29 22:58S 32°53' E 151°45'0 0.0
2018-May-29 22:28S 32°53' E 151°45'0 0.0
2018-May-29 21:58S 32°53' E 151°45'0 0.0
2018-May-29 21:28S 32°53' E 151°45'0 0.0
2018-May-29 20:55S 32°53' E 151°45'0 0.0
2018-May-29 20:28S 32°53' E 151°45'0 0.0
2018-May-29 19:58S 32°53' E 151°45'0 0.0
2018-May-29 19:28S 32°53' E 151°45'0 0.0
2018-May-29 18:58S 32°53' E 151°45'0 0.0
2018-May-29 18:28S 32°53' E 151°45'0 0.0
2018-May-29 17:58S 32°53' E 151°45'0 0.0
2018-May-29 17:28S 32°53' E 151°45'0 0.0
2018-May-29 16:58S 32°53' E 151°45'0 0.0
2018-May-29 16:28S 32°53' E 151°45'0 0.0
2018-May-29 15:58S 32°53' E 151°45'0 0.0
2018-May-29 15:28S 32°53' E 151°45'0 0.0
2018-May-29 14:58S 32°53' E 151°45'0 0.0
2018-May-29 14:31S 32°53' E 151°45'0 0.0
2018-May-29 13:58S 32°53' E 151°45'0 0.0
2018-May-29 13:28S 32°53' E 151°45'0 0.0
2018-May-29 12:58S 32°53' E 151°45'0 0.0
2018-May-29 12:28S 32°53' E 151°45'0 0.0
2018-May-29 11:58S 32°53' E 151°45'0 0.0
2018-May-29 11:28S 32°53' E 151°45'0 0.0
2018-May-29 10:58S 32°53' E 151°45'0 0.0
2018-May-29 10:28S 32°53' E 151°45'0 0.0
2018-May-29 09:58S 32°53' E 151°45'0 0.0
2018-May-29 09:28S 32°53' E 151°45'0 0.0
2018-May-29 08:58S 32°53' E 151°45'0 0.0
2018-May-29 08:28S 32°53' E 151°45'0 0.0
2018-May-29 07:58S 32°53' E 151°45'0 0.0
2018-May-29 07:28S 32°53' E 151°45'0 0.0
2018-May-29 06:58S 32°53' E 151°45'0 0.0
2018-May-29 06:28S 32°53' E 151°45'0 0.0
2018-May-29 05:58S 32°53' E 151°45'0 0.5
2018-May-29 05:30S 32°53' E 151°46'1 2.2
2018-May-29 05:00S 32°54' E 151°46'2 4.1
2018-May-29 04:30S 32°55' E 151°49'4 7.6
2018-May-29 04:00S 32°57' E 151°52'3 6.8
2018-May-29 03:30S 33°00' E 151°54'4 8.5
2018-May-29 03:00S 33°01' E 151°59'5 9.5
2018-May-29 02:30S 33°02' E 152°05'0 0.6
2018-May-29 01:58S 33°02' E 152°04'0 0.6
2018-May-29 01:28S 33°02' E 152°04'0 0.6
2018-May-29 00:58S 33°02' E 152°04'0 0.7
2018-May-29 00:28S 33°01' E 152°04'0 0.7
2018-May-28 23:58S 33°01' E 152°03'0 0.9
2018-May-28 23:28S 33°01' E 152°03'0 0.7
2018-May-28 22:58S 33°01' E 152°03'1 2.4
2018-May-28 22:30S 33°01' E 152°01'5 9.8
2018-May-28 22:00S 33°05' E 151°60'510.2
2018-May-28 21:30S 33°10' E 152°00'510.0
2018-May-28 21:00S 33°15' E 152°01'5 9.8
2018-May-28 20:30S 33°20' E 152°03'2 4.2
2018-May-28 20:00S 33°22' E 152°04'4 2.5
2018-May-28 18:30S 33°19' E 152°06'3 2.5
2018-May-28 17:22S 33°17' E 152°08'3 2.4
2018-May-28 16:10S 33°14' E 152°10'0 2.4
2018-May-28 16:00S 33°14' E 152°10'1 2.5
2018-May-28 15:30S 33°13' E 152°11'1 2.7
2018-May-28 15:00S 33°11' E 152°11'1 2.6
2018-May-28 14:31S 33°10' E 152°12'1 2.7
2018-May-28 14:00S 33°09' E 152°12'1 2.8
2018-May-28 13:30S 33°07' E 152°13'1 2.8
2018-May-28 13:00S 33°06' E 152°13'1 1.7
2018-May-28 12:27S 33°05' E 152°13'3 6.3
2018-May-28 12:00S 33°07' E 152°10'5 9.0
2018-May-28 11:30S 33°08' E 152°06'5 9.5
2018-May-28 11:00S 33°10' E 152°00'5 9.8
2018-May-28 10:29S 33°13' E 151°55'2 1.1
2018-May-28 09:02S 33°14' E 151°54'1 1.5
2018-May-28 08:20S 33°14' E 151°55'2 1.4
2018-May-28 07:14S 33°14' E 151°57'0 1.2
2018-May-28 06:56S 33°14' E 151°57'1 1.3
2018-May-28 06:20S 33°14' E 151°58'1 1.3
2018-May-28 05:56S 33°14' E 151°59'1 1.3
2018-May-28 05:26S 33°14' E 151°60'1 1.1
2018-May-28 04:32S 33°13' E 152°01'0 1.1
2018-May-28 04:29S 33°13' E 152°01'1 1.1
2018-May-28 03:59S 33°13' E 152°01'1 1.6
2018-May-28 03:20S 33°12' E 152°02'1 1.8
2018-May-28 03:00S 33°12' E 152°02'1 1.9
2018-May-28 02:30S 33°11' E 152°03'1 1.7
2018-May-28 01:57S 33°10' E 152°03'1 1.5
2018-May-28 01:30S 33°09' E 152°04'1 1.5
2018-May-28 01:00S 33°09' E 152°04'1 1.4
2018-May-28 00:30S 33°08' E 152°04'1 1.2
2018-May-28 00:00S 33°08' E 152°05'1 1.1
2018-May-27 23:30S 33°07' E 152°05'0 0.9
2018-May-27 23:00S 33°07' E 152°04'3 7.0
2018-May-27 22:30S 33°10' E 152°03'5 9.8
2018-May-27 22:00S 33°15' E 152°01'5 9.2
2018-May-27 21:30S 33°19' E 151°59'12 9.2
2018-May-27 20:09S 33°30' E 151°53'1 9.3
2018-May-27 20:00S 33°32' E 151°53'5 9.2
2018-May-27 19:30S 33°36' E 151°50'5 9.2
2018-May-27 19:00S 33°40' E 151°47'1 1.7
2018-May-27 18:30S 33°40' E 151°47'1 1.5
2018-May-27 18:00S 33°40' E 151°47'1 2.0
2018-May-27 17:30S 33°39' E 151°48'1 2.4
2018-May-27 17:00S 33°38' E 151°49'1 2.2
2018-May-27 16:30S 33°37' E 151°50'1 2.2
2018-May-27 16:00S 33°37' E 151°51'1 2.2
2018-May-27 15:28S 33°36' E 151°52'1 1.9
2018-May-27 14:58S 33°35' E 151°53'1 2.0
2018-May-27 14:25S 33°35' E 151°54'1 2.0
2018-May-27 13:55S 33°34' E 151°55'1 1.9
2018-May-27 13:28S 33°34' E 151°56'18 1.7
2018-May-27 03:06S 33°21' E 152°11'0 1.4
2018-May-27 02:55S 33°21' E 152°11'1 1.5
2018-May-27 02:25S 33°20' E 152°12'1 1.4
2018-May-27 02:01S 33°20' E 152°12'1 2.2
2018-May-27 01:30S 33°19' E 152°11'4 7.3
2018-May-27 01:00S 33°21' E 152°08'4 8.9
2018-May-27 00:30S 33°26' E 152°06'5 8.9
2018-May-26 23:58S 33°29' E 152°02'4 9.3
2018-May-26 23:30S 33°32' E 151°59'4 1.1
2018-May-26 20:08S 33°33' E 151°54'0 1.1
2018-May-26 19:59S 33°33' E 151°55'1 1.0
2018-May-26 19:26S 33°33' E 151°55'3 1.2
2018-May-26 17:05S 33°30' E 151°56'17 1.1
2018-May-26 01:04S 33°19' E 152°11'0 1.0
2018-May-26 00:39S 33°18' E 152°11'0 0.8
2018-May-26 00:16S 33°18' E 152°12'0 0.6
2018-May-25 23:52S 33°18' E 152°12'1 0.7
2018-May-25 22:42S 33°17' E 152°12'0 0.5
2018-May-25 22:29S 33°17' E 152°12'0 0.6
2018-May-25 21:59S 33°17' E 152°13'0 0.3
2018-May-25 21:29S 33°17' E 152°13'4 5.8
2018-May-25 20:47S 33°18' E 152°08'3 8.9
2018-May-25 20:28S 33°18' E 152°05'710.0
2018-May-25 19:47S 33°20' E 151°57'2 0.2
2018-May-25 09:35S 33°20' E 151°55'0 1.0
2018-May-25 09:08S 33°20' E 151°56'0 1.2
2018-May-25 08:48S 33°20' E 151°56'0 1.0
2018-May-25 08:27S 33°20' E 151°57'12 3.8
2018-May-25 05:19S 33°21' E 152°11'1 1.1
2018-May-25 04:50S 33°21' E 152°11'0 0.6
2018-May-25 04:30S 33°21' E 152°11'0 0.4
2018-May-25 04:00S 33°21' E 152°12'0 0.3
2018-May-25 03:29S 33°21' E 152°12'0 0.3
2018-May-25 02:58S 33°21' E 152°12'0 0.4
2018-May-25 02:20S 33°21' E 152°12'0 0.3
2018-May-25 01:53S 33°21' E 152°12'0 0.3
2018-May-25 00:21S 33°20' E 152°13'0 0.2
2018-May-24 23:57S 33°20' E 152°13'0 0.2
2018-May-24 23:20S 33°20' E 152°13'0 0.3
2018-May-24 22:48S 33°20' E 152°13'0 0.4
2018-May-24 22:26S 33°20' E 152°13'0 0.3
2018-May-24 22:00S 33°20' E 152°13'0 0.5
2018-May-24 21:15S 33°20' E 152°13'0 0.4
2018-May-24 20:51S 33°19' E 152°13'0 0.5
2018-May-24 20:21S 33°19' E 152°13'0 0.6
2018-May-24 19:59S 33°19' E 152°14'0 0.6
2018-May-24 19:22S 33°19' E 152°14'0 0.6
2018-May-24 19:00S 33°18' E 152°14'0 0.7
2018-May-24 18:28S 33°18' E 152°14'0 0.6
2018-May-24 17:55S 33°18' E 152°14'0 0.6
2018-May-24 17:30S 33°17' E 152°14'0 0.6
2018-May-24 16:56S 33°17' E 152°14'0 0.7
2018-May-24 16:30S 33°17' E 152°14'0 0.6
2018-May-24 16:00S 33°17' E 152°15'0 0.7
2018-May-24 15:26S 33°16' E 152°15'0 0.7
2018-May-24 14:54S 33°16' E 152°15'0 0.6
2018-May-24 14:30S 33°16' E 152°15'0 0.6
2018-May-24 14:00S 33°15' E 152°15'0 0.4
2018-May-24 13:25S 33°15' E 152°15'7 1.5
2018-May-24 09:00S 33°09' E 152°12'4 7.4
2018-May-24 08:30S 33°07' E 152°08'1 1.5
2018-May-24 08:00S 33°07' E 152°09'1 1.1
2018-May-24 07:30S 33°07' E 152°10'1 1.4
2018-May-24 07:00S 33°07' E 152°10'1 1.5
2018-May-24 06:30S 33°08' E 152°11'1 1.2
2018-May-24 06:00S 33°08' E 152°12'1 1.2
2018-May-24 05:30S 33°08' E 152°12'1 1.2
2018-May-24 04:59S 33°08' E 152°13'1 1.2
2018-May-24 04:26S 33°09' E 152°14'1 1.4
2018-May-24 04:00S 33°09' E 152°15'3 5.4
2018-May-24 03:30S 33°06' E 152°16'4 9.1
2018-May-24 03:00S 33°02' E 152°18'4 8.6
2018-May-24 02:30S 32°58' E 152°19'4 8.6
2018-May-24 02:00S 32°54' E 152°21'4 8.7
2018-May-24 01:30S 32°50' E 152°22'4 8.8
2018-May-24 01:00S 32°46' E 152°24'4 8.0
2018-May-24 00:30S 32°42' E 152°27'4 7.2
2018-May-24 00:00S 32°41' E 152°30'4 8.8
2018-May-23 23:30S 32°38' E 152°35'5 9.2
2018-May-23 23:00S 32°35' E 152°39'5 9.2
2018-May-23 22:30S 32°32' E 152°43'5 9.2
2018-May-23 22:00S 32°28' E 152°44'5 9.3
2018-May-23 21:30S 32°23' E 152°46'2 4.3
2018-May-23 21:00S 32°22' E 152°48'4 8.5
2018-May-23 20:30S 32°26' E 152°46'4 8.3
2018-May-23 20:00S 32°30' E 152°44'4 8.1
2018-May-23 19:30S 32°33' E 152°43'4 8.7
2018-May-23 19:00S 32°36' E 152°39'3 5.8
2018-May-23 18:30S 32°38' E 152°36'3 6.7
2018-May-23 18:00S 32°35' E 152°38'5 9.8
2018-May-23 17:30S 32°32' E 152°43'5 9.4
2018-May-23 16:58S 32°27' E 152°45'5 9.6
2018-May-23 16:30S 32°23' E 152°47'29 8.8
2018-May-23 13:17S 31°56' E 152°58'236 9.5
2018-May-22 12:34S 28°05' E 153°51'112.3
2018-May-22 12:30S 28°04' E 153°51'5 9.7
2018-May-22 11:58S 27°59' E 153°52'  
Track history (hours):
 
Tides and Currents Weather Stations Pressure Air Temp Water Temp Dewpoint Dewpoint Depression Visibility Wind Speed Wind Dir Waves Ship Positions

Ibis Wind

Last reported at 2018-Jun-01 05:35 UTC. Time now 2018-Jun-23 21:47 UTC.
Position S 27°34' E 153°52'.
Warning: this ship's position is 22 days out of date.

Length 229 m; draft 13.2 m.

Type: Cargo ship. MMSI: 370333000.

Date/timePositionNaut miles runAvg speedWind from/ knotsBaromVisibWave heightAir tempDewpointWater temp
2018-Jun-01 05:35S 27°34' E 153°52'5 9.9
2018-Jun-01 05:06S 27°39' E 153°52'2 9.9
2018-Jun-01 04:57S 27°40' E 153°52'5 9.8
2018-Jun-01 04:29S 27°45' E 153°52'5 9.8
2018-Jun-01 03:56S 27°50' E 153°52'5 9.8
2018-Jun-01 03:25S 27°55' E 153°51'7 9.7
2018-Jun-01 02:45S 28°02' E 153°51'26810.4
2018-May-31 00:59S 32°22' E 152°41'4 9.2
2018-May-31 00:31S 32°26' E 152°39'4 8.6
2018-May-31 00:00S 32°30' E 152°37'4 8.6
2018-May-30 23:30S 32°33' E 152°33'5 9.5
2018-May-30 23:01S 32°37' E 152°29'5 9.9
2018-May-30 22:31S 32°40' E 152°25'510.6
2018-May-30 22:01S 32°44' E 152°20'5 9.9
2018-May-30 21:30S 32°47' E 152°16'510.9
2018-May-30 21:01S 32°50' E 152°11'510.7
2018-May-30 20:31S 32°53' E 152°05'510.6
2018-May-30 20:01S 32°56' E 151°60'510.7
2018-May-30 19:31S 32°57' E 151°54'4 7.1
2018-May-30 19:01S 32°56' E 151°49'2 5.0
2018-May-30 18:31S 32°55' E 151°47'2 3.5
2018-May-30 18:00S 32°54' E 151°46'1 1.6
2018-May-30 17:29S 32°53' E 151°45'0 0.0
2018-May-30 16:56S 32°53' E 151°45'0 0.0
2018-May-30 16:26S 32°53' E 151°45'0 0.0
2018-May-30 15:59S 32°53' E 151°45'0 0.0
2018-May-30 15:29S 32°53' E 151°45'0 0.0
2018-May-30 14:59S 32°53' E 151°45'0 0.0
2018-May-30 14:29S 32°53' E 151°45'0 0.0
2018-May-30 13:59S 32°53' E 151°45'0 0.0
2018-May-30 13:29S 32°53' E 151°45'0 0.0
2018-May-30 12:59S 32°53' E 151°45'0 0.0
2018-May-30 12:29S 32°53' E 151°45'0 0.0
2018-May-30 11:59S 32°53' E 151°45'0 0.0
2018-May-30 11:29S 32°53' E 151°45'0 0.0
2018-May-30 10:59S 32°53' E 151°45'0 0.0
2018-May-30 10:29S 32°53' E 151°45'0 0.0
2018-May-30 09:59S 32°53' E 151°45'0 0.0
2018-May-30 09:29S 32°53' E 151°45'0 0.0
2018-May-30 08:59S 32°53' E 151°45'0 0.0
2018-May-30 08:29S 32°53' E 151°45'0 0.0
2018-May-30 07:59S 32°53' E 151°45'0 0.0
2018-May-30 07:29S 32°53' E 151°45'0 0.0
2018-May-30 06:59S 32°53' E 151°45'0 0.0
2018-May-30 06:29S 32°53' E 151°45'0 0.0
2018-May-30 06:00S 32°53' E 151°45'0 0.0
2018-May-30 05:25S 32°53' E 151°45'0 0.0
2018-May-30 04:58S 32°53' E 151°45'0 0.0
2018-May-30 04:28S 32°53' E 151°45'0 0.0
2018-May-30 03:58S 32°53' E 151°45'0 0.0
2018-May-30 03:28S 32°53' E 151°45'0 0.0
2018-May-30 02:58S 32°53' E 151°45'0 0.0
2018-May-30 02:28S 32°53' E 151°45'0 0.0
2018-May-30 01:58S 32°53' E 151°45'0 0.0
2018-May-30 01:31S 32°53' E 151°45'0 0.0
2018-May-30 00:58S 32°53' E 151°45'0 0.0
2018-May-30 00:28S 32°53' E 151°45'0 0.0
2018-May-29 23:58S 32°53' E 151°45'0 0.0
2018-May-29 23:28S 32°53' E 151°45'0 0.0
2018-May-29 22:58S 32°53' E 151°45'0 0.0
2018-May-29 22:28S 32°53' E 151°45'0 0.0
2018-May-29 21:58S 32°53' E 151°45'0 0.0
2018-May-29 21:28S 32°53' E 151°45'0 0.0
2018-May-29 20:55S 32°53' E 151°45'0 0.0
2018-May-29 20:28S 32°53' E 151°45'0 0.0
2018-May-29 19:58S 32°53' E 151°45'0 0.0
2018-May-29 19:28S 32°53' E 151°45'0 0.0
2018-May-29 18:58S 32°53' E 151°45'0 0.0
2018-May-29 18:28S 32°53' E 151°45'0 0.0
2018-May-29 17:58S 32°53' E 151°45'0 0.0
2018-May-29 17:28S 32°53' E 151°45'0 0.0
2018-May-29 16:58S 32°53' E 151°45'0 0.0
2018-May-29 16:28S 32°53' E 151°45'0 0.0
2018-May-29 15:58S 32°53' E 151°45'0 0.0
2018-May-29 15:28S 32°53' E 151°45'0 0.0
2018-May-29 14:58S 32°53' E 151°45'0 0.0
2018-May-29 14:31S 32°53' E 151°45'0 0.0
2018-May-29 13:58S 32°53' E 151°45'0 0.0
2018-May-29 13:28S 32°53' E 151°45'0 0.0
2018-May-29 12:58S 32°53' E 151°45'0 0.0
2018-May-29 12:28S 32°53' E 151°45'0 0.0
2018-May-29 11:58S 32°53' E 151°45'0 0.0
2018-May-29 11:28S 32°53' E 151°45'0 0.0
2018-May-29 10:58S 32°53' E 151°45'0 0.0
2018-May-29 10:28S 32°53' E 151°45'0 0.0
2018-May-29 09:58S 32°53' E 151°45'0 0.0
2018-May-29 09:28S 32°53' E 151°45'0 0.0
2018-May-29 08:58S 32°53' E 151°45'0 0.0
2018-May-29 08:28S 32°53' E 151°45'0 0.0
2018-May-29 07:58S 32°53' E 151°45'0 0.0
2018-May-29 07:28S 32°53' E 151°45'0 0.0
2018-May-29 06:58S 32°53' E 151°45'0 0.0
2018-May-29 06:28S 32°53' E 151°45'0 0.0
2018-May-29 05:58S 32°53' E 151°45'0 0.5
2018-May-29 05:30S 32°53' E 151°46'1 2.2
2018-May-29 05:00S 32°54' E 151°46'2 4.1
2018-May-29 04:30S 32°55' E 151°49'4 7.6
2018-May-29 04:00S 32°57' E 151°52'3 6.8
2018-May-29 03:30S 33°00' E 151°54'4 8.5
2018-May-29 03:00S 33°01' E 151°59'5 9.5
2018-May-29 02:30S 33°02' E 152°05'0 0.6
2018-May-29 01:58S 33°02' E 152°04'0 0.6
2018-May-29 01:28S 33°02' E 152°04'0 0.6
2018-May-29 00:58S 33°02' E 152°04'0 0.7
2018-May-29 00:28S 33°01' E 152°04'0 0.7
2018-May-28 23:58S 33°01' E 152°03'0 0.9
2018-May-28 23:28S 33°01' E 152°03'0 0.7
2018-May-28 22:58S 33°01' E 152°03'1 2.4
2018-May-28 22:30S 33°01' E 152°01'5 9.8
2018-May-28 22:00S 33°05' E 151°60'510.2
2018-May-28 21:30S 33°10' E 152°00'510.0
2018-May-28 21:00S 33°15' E 152°01'5 9.8
2018-May-28 20:30S 33°20' E 152°03'2 4.2
2018-May-28 20:00S 33°22' E 152°04'4 2.5
2018-May-28 18:30S 33°19' E 152°06'3 2.5
2018-May-28 17:22S 33°17' E 152°08'3 2.4
2018-May-28 16:10S 33°14' E 152°10'0 2.4
2018-May-28 16:00S 33°14' E 152°10'1 2.5
2018-May-28 15:30S 33°13' E 152°11'1 2.7
2018-May-28 15:00S 33°11' E 152°11'1 2.6
2018-May-28 14:31S 33°10' E 152°12'1 2.7
2018-May-28 14:00S 33°09' E 152°12'1 2.8
2018-May-28 13:30S 33°07' E 152°13'1 2.8
2018-May-28 13:00S 33°06' E 152°13'1 1.7
2018-May-28 12:27S 33°05' E 152°13'3 6.3
2018-May-28 12:00S 33°07' E 152°10'5 9.0
2018-May-28 11:30S 33°08' E 152°06'5 9.5
2018-May-28 11:00S 33°10' E 152°00'5 9.8
2018-May-28 10:29S 33°13' E 151°55'2 1.1
2018-May-28 09:02S 33°14' E 151°54'1 1.5
2018-May-28 08:20S 33°14' E 151°55'2 1.4
2018-May-28 07:14S 33°14' E 151°57'0 1.2
2018-May-28 06:56S 33°14' E 151°57'1 1.3
2018-May-28 06:20S 33°14' E 151°58'1 1.3
2018-May-28 05:56S 33°14' E 151°59'1 1.3
2018-May-28 05:26S 33°14' E 151°60'1 1.1
2018-May-28 04:32S 33°13' E 152°01'0 1.1
2018-May-28 04:29S 33°13' E 152°01'1 1.1
2018-May-28 03:59S 33°13' E 152°01'1 1.6
2018-May-28 03:20S 33°12' E 152°02'1 1.8
2018-May-28 03:00S 33°12' E 152°02'1 1.9
2018-May-28 02:30S 33°11' E 152°03'1 1.7
2018-May-28 01:57S 33°10' E 152°03'1 1.5
2018-May-28 01:30S 33°09' E 152°04'1 1.5
2018-May-28 01:00S 33°09' E 152°04'1 1.4
2018-May-28 00:30S 33°08' E 152°04'1 1.2
2018-May-28 00:00S 33°08' E 152°05'1 1.1
2018-May-27 23:30S 33°07' E 152°05'0 0.9
2018-May-27 23:00S 33°07' E 152°04'3 7.0
2018-May-27 22:30S 33°10' E 152°03'5 9.8
2018-May-27 22:00S 33°15' E 152°01'5 9.2
2018-May-27 21:30S 33°19' E 151°59'12 9.2
2018-May-27 20:09S 33°30' E 151°53'1 9.3
2018-May-27 20:00S 33°32' E 151°53'5 9.2
2018-May-27 19:30S 33°36' E 151°50'5 9.2
2018-May-27 19:00S 33°40' E 151°47'1 1.7
2018-May-27 18:30S 33°40' E 151°47'1 1.5
2018-May-27 18:00S 33°40' E 151°47'1 2.0
2018-May-27 17:30S 33°39' E 151°48'1 2.4
2018-May-27 17:00S 33°38' E 151°49'1 2.2
2018-May-27 16:30S 33°37' E 151°50'1 2.2
2018-May-27 16:00S 33°37' E 151°51'1 2.2
2018-May-27 15:28S 33°36' E 151°52'1 1.9
2018-May-27 14:58S 33°35' E 151°53'1 2.0
2018-May-27 14:25S 33°35' E 151°54'1 2.0
2018-May-27 13:55S 33°34' E 151°55'1 1.9
2018-May-27 13:28S 33°34' E 151°56'18 1.7
2018-May-27 03:06S 33°21' E 152°11'0 1.4
2018-May-27 02:55S 33°21' E 152°11'1 1.5
2018-May-27 02:25S 33°20' E 152°12'1 1.4
2018-May-27 02:01S 33°20' E 152°12'1 2.2
2018-May-27 01:30S 33°19' E 152°11'4 7.3
2018-May-27 01:00S 33°21' E 152°08'4 8.9
2018-May-27 00:30S 33°26' E 152°06'5 8.9
2018-May-26 23:58S 33°29' E 152°02'4 9.3
2018-May-26 23:30S 33°32' E 151°59'4 1.1
2018-May-26 20:08S 33°33' E 151°54'0 1.1
2018-May-26 19:59S 33°33' E 151°55'1 1.0
2018-May-26 19:26S 33°33' E 151°55'3 1.2
2018-May-26 17:05S 33°30' E 151°56'17 1.1
2018-May-26 01:04S 33°19' E 152°11'0 1.0
2018-May-26 00:39S 33°18' E 152°11'0 0.8
2018-May-26 00:16S 33°18' E 152°12'0 0.6
2018-May-25 23:52S 33°18' E 152°12'1 0.7
2018-May-25 22:42S 33°17' E 152°12'0 0.5
2018-May-25 22:29S 33°17' E 152°12'0 0.6
2018-May-25 21:59S 33°17' E 152°13'0 0.3
2018-May-25 21:29S 33°17' E 152°13'4 5.8
2018-May-25 20:47S 33°18' E 152°08'3 8.9
2018-May-25 20:28S 33°18' E 152°05'710.0
2018-May-25 19:47S 33°20' E 151°57'2 0.2
2018-May-25 09:35S 33°20' E 151°55'0 1.0
2018-May-25 09:08S 33°20' E 151°56'0 1.2
2018-May-25 08:48S 33°20' E 151°56'0 1.0
2018-May-25 08:27S 33°20' E 151°57'12 3.8
2018-May-25 05:19S 33°21' E 152°11'1 1.1
2018-May-25 04:50S 33°21' E 152°11'0 0.6
2018-May-25 04:30S 33°21' E 152°11'0 0.4
2018-May-25 04:00S 33°21' E 152°12'0 0.3
2018-May-25 03:29S 33°21' E 152°12'0 0.3
2018-May-25 02:58S 33°21' E 152°12'0 0.4
2018-May-25 02:20S 33°21' E 152°12'0 0.3
2018-May-25 01:53S 33°21' E 152°12'0 0.3
2018-May-25 00:21S 33°20' E 152°13'0 0.2
2018-May-24 23:57S 33°20' E 152°13'0 0.2
2018-May-24 23:20S 33°20' E 152°13'0 0.3
2018-May-24 22:48S 33°20' E 152°13'0 0.4
2018-May-24 22:26S 33°20' E 152°13'0 0.3
2018-May-24 22:00S 33°20' E 152°13'0 0.5
2018-May-24 21:15S 33°20' E 152°13'0 0.4
2018-May-24 20:51S 33°19' E 152°13'0 0.5
2018-May-24 20:21S 33°19' E 152°13'0 0.6
2018-May-24 19:59S 33°19' E 152°14'0 0.6
2018-May-24 19:22S 33°19' E 152°14'0 0.6
2018-May-24 19:00S 33°18' E 152°14'0 0.7
2018-May-24 18:28S 33°18' E 152°14'0 0.6
2018-May-24 17:55S 33°18' E 152°14'0 0.6
2018-May-24 17:30S 33°17' E 152°14'0 0.6
2018-May-24 16:56S 33°17' E 152°14'0 0.7
2018-May-24 16:30S 33°17' E 152°14'0 0.6
2018-May-24 16:00S 33°17' E 152°15'0 0.7
2018-May-24 15:26S 33°16' E 152°15'0 0.7
2018-May-24 14:54S 33°16' E 152°15'0 0.6
2018-May-24 14:30S 33°16' E 152°15'0 0.6
2018-May-24 14:00S 33°15' E 152°15'0 0.4
2018-May-24 13:25S 33°15' E 152°15'7 1.5
2018-May-24 09:00S 33°09' E 152°12'4 7.4
2018-May-24 08:30S 33°07' E 152°08'1 1.5
2018-May-24 08:00S 33°07' E 152°09'1 1.1
2018-May-24 07:30S 33°07' E 152°10'1 1.4
2018-May-24 07:00S 33°07' E 152°10'1 1.5
2018-May-24 06:30S 33°08' E 152°11'1 1.2
2018-May-24 06:00S 33°08' E 152°12'1 1.2
2018-May-24 05:30S 33°08' E 152°12'1 1.2
2018-May-24 04:59S 33°08' E 152°13'1 1.2
2018-May-24 04:26S 33°09' E 152°14'1 1.4
2018-May-24 04:00S 33°09' E 152°15'3 5.4
2018-May-24 03:30S 33°06' E 152°16'4 9.1
2018-May-24 03:00S 33°02' E 152°18'4 8.6
2018-May-24 02:30S 32°58' E 152°19'4 8.6
2018-May-24 02:00S 32°54' E 152°21'4 8.7
2018-May-24 01:30S 32°50' E 152°22'4 8.8
2018-May-24 01:00S 32°46' E 152°24'4 8.0
2018-May-24 00:30S 32°42' E 152°27'4 7.2
2018-May-24 00:00S 32°41' E 152°30'4 8.8
2018-May-23 23:30S 32°38' E 152°35'5 9.2
2018-May-23 23:00S 32°35' E 152°39'5 9.2
2018-May-23 22:30S 32°32' E 152°43'5 9.2
2018-May-23 22:00S 32°28' E 152°44'5 9.3
2018-May-23 21:30S 32°23' E 152°46'2 4.3
2018-May-23 21:00S 32°22' E 152°48'4 8.5
2018-May-23 20:30S 32°26' E 152°46'4 8.3
2018-May-23 20:00S 32°30' E 152°44'4 8.1
2018-May-23 19:30S 32°33' E 152°43'4 8.7
2018-May-23 19:00S 32°36' E 152°39'3 5.8
2018-May-23 18:30S 32°38' E 152°36'3 6.7
2018-May-23 18:00S 32°35' E 152°38'5 9.8
2018-May-23 17:30S 32°32' E 152°43'5 9.4
2018-May-23 16:58S 32°27' E 152°45'5 9.6
2018-May-23 16:30S 32°23' E 152°47'29 8.8
2018-May-23 13:17S 31°56' E 152°58'236 9.5
2018-May-22 12:34S 28°05' E 153°51'112.3
2018-May-22 12:30S 28°04' E 153°51'5 9.7
2018-May-22 11:58S 27°59' E 153°52'  

Dump ship's entire track history